sensor_id;sensor_type;location;lat;lon;timestamp;P1;durP1;ratioP1;P2;durP2;ratioP2
18507;SDS011;9383;50.928;12.116;2023-04-03T00:01:23;2.50;;;1.52;;
18507;SDS011;9383;50.928;12.116;2023-04-03T00:03:49;2.10;;;1.30;;
18507;SDS011;9383;50.928;12.116;2023-04-03T00:06:17;3.22;;;1.40;;
18507;SDS011;9383;50.928;12.116;2023-04-03T00:08:44;6.65;;;1.17;;
18507;SDS011;9383;50.928;12.116;2023-04-03T00:11:10;4.55;;;1.23;;
18507;SDS011;9383;50.928;12.116;2023-04-03T00:13:37;2.28;;;1.55;;
18507;SDS011;9383;50.928;12.116;2023-04-03T00:16:05;1.65;;;1.27;;
18507;SDS011;9383;50.928;12.116;2023-04-03T00:18:32;2.13;;;1.42;;
18507;SDS011;9383;50.928;12.116;2023-04-03T00:20:59;5.22;;;1.80;;
18507;SDS011;9383;50.928;12.116;2023-04-03T00:23:25;2.40;;;1.10;;
18507;SDS011;9383;50.928;12.116;2023-04-03T00:25:52;2.15;;;1.35;;
18507;SDS011;9383;50.928;12.116;2023-04-03T00:28:20;1.63;;;1.33;;
18507;SDS011;9383;50.928;12.116;2023-04-03T00:30:48;1.23;;;0.93;;
18507;SDS011;9383;50.928;12.116;2023-04-03T00:33:15;1.58;;;1.48;;
18507;SDS011;9383;50.928;12.116;2023-04-03T00:35:42;3.40;;;1.40;;
18507;SDS011;9383;50.928;12.116;2023-04-03T00:38:09;3.35;;;1.48;;
18507;SDS011;9383;50.928;12.116;2023-04-03T00:40:36;4.25;;;1.45;;
18507;SDS011;9383;50.928;12.116;2023-04-03T00:43:11;4.53;;;1.30;;
18507;SDS011;9383;50.928;12.116;2023-04-03T00:45:49;2.58;;;1.75;;
18507;SDS011;9383;50.928;12.116;2023-04-03T00:48:21;4.07;;;1.40;;
18507;SDS011;9383;50.928;12.116;2023-04-03T00:50:55;3.83;;;1.50;;
18507;SDS011;9383;50.928;12.116;2023-04-03T00:53:23;2.95;;;1.42;;
18507;SDS011;9383;50.928;12.116;2023-04-03T00:55:54;4.18;;;1.23;;
18507;SDS011;9383;50.928;12.116;2023-04-03T00:58:24;2.05;;;1.27;;
18507;SDS011;9383;50.928;12.116;2023-04-03T01:00:58;2.92;;;1.50;;
18507;SDS011;9383;50.928;12.116;2023-04-03T01:03:29;1.48;;;1.25;;
18507;SDS011;9383;50.928;12.116;2023-04-03T01:05:57;2.75;;;1.27;;
18507;SDS011;9383;50.928;12.116;2023-04-03T01:08:24;3.10;;;1.80;;
18507;SDS011;9383;50.928;12.116;2023-04-03T01:10:50;3.25;;;1.35;;
18507;SDS011;9383;50.928;12.116;2023-04-03T01:13:22;2.97;;;1.60;;
18507;SDS011;9383;50.928;12.116;2023-04-03T01:15:53;4.63;;;2.03;;
18507;SDS011;9383;50.928;12.116;2023-04-03T01:18:24;3.50;;;1.40;;
18507;SDS011;9383;50.928;12.116;2023-04-03T01:26:11;2.53;;;1.70;;
18507;SDS011;9383;50.928;12.116;2023-04-03T01:28:38;4.93;;;1.95;;
18507;SDS011;9383;50.928;12.116;2023-04-03T01:33:52;2.50;;;1.50;;
18507;SDS011;9383;50.928;12.116;2023-04-03T01:36:24;2.47;;;1.30;;
18507;SDS011;9383;50.928;12.116;2023-04-03T01:38:53;2.72;;;1.40;;
18507;SDS011;9383;50.928;12.116;2023-04-03T01:41:22;6.70;;;1.80;;
18507;SDS011;9383;50.928;12.116;2023-04-03T01:43:49;3.55;;;1.67;;
18507;SDS011;9383;50.928;12.116;2023-04-03T01:46:16;3.70;;;1.60;;
18507;SDS011;9383;50.928;12.116;2023-04-03T01:48:43;2.40;;;1.60;;
18507;SDS011;9383;50.928;12.116;2023-04-03T01:51:10;2.80;;;1.40;;
18507;SDS011;9383;50.928;12.116;2023-04-03T01:53:36;3.95;;;1.65;;
18507;SDS011;9383;50.928;12.116;2023-04-03T01:56:03;2.67;;;1.40;;
18507;SDS011;9383;50.928;12.116;2023-04-03T01:58:30;2.75;;;1.27;;
18507;SDS011;9383;50.928;12.116;2023-04-03T02:00:56;2.80;;;1.83;;
18507;SDS011;9383;50.928;12.116;2023-04-03T02:03:23;2.35;;;1.30;;
18507;SDS011;9383;50.928;12.116;2023-04-03T02:05:49;1.90;;;1.20;;
18507;SDS011;9383;50.928;12.116;2023-04-03T02:08:16;4.32;;;1.45;;
18507;SDS011;9383;50.928;12.116;2023-04-03T02:10:44;2.55;;;1.35;;
18507;SDS011;9383;50.928;12.116;2023-04-03T02:13:14;3.67;;;1.60;;
18507;SDS011;9383;50.928;12.116;2023-04-03T02:15:40;3.30;;;1.40;;
18507;SDS011;9383;50.928;12.116;2023-04-03T02:18:07;2.67;;;1.38;;
18507;SDS011;9383;50.928;12.116;2023-04-03T02:20:34;4.15;;;1.50;;
18507;SDS011;9383;50.928;12.116;2023-04-03T02:23:01;2.85;;;1.65;;
18507;SDS011;9383;50.928;12.116;2023-04-03T02:25:28;1.88;;;1.52;;
18507;SDS011;9383;50.928;12.116;2023-04-03T02:27:56;2.55;;;1.45;;
18507;SDS011;9383;50.928;12.116;2023-04-03T02:30:22;5.07;;;1.40;;
18507;SDS011;9383;50.928;12.116;2023-04-03T02:32:49;2.58;;;1.30;;
18507;SDS011;9383;50.928;12.116;2023-04-03T02:35:15;2.28;;;1.58;;
18507;SDS011;9383;50.928;12.116;2023-04-03T02:37:42;3.08;;;1.45;;
18507;SDS011;9383;50.928;12.116;2023-04-03T02:40:08;3.95;;;1.35;;
18507;SDS011;9383;50.928;12.116;2023-04-03T02:42:36;3.53;;;1.85;;
18507;SDS011;9383;50.928;12.116;2023-04-03T02:45:03;3.10;;;1.38;;
18507;SDS011;9383;50.928;12.116;2023-04-03T02:47:30;3.30;;;1.65;;
18507;SDS011;9383;50.928;12.116;2023-04-03T02:49:57;4.30;;;1.60;;
18507;SDS011;9383;50.928;12.116;2023-04-03T02:52:23;3.28;;;1.52;;
18507;SDS011;9383;50.928;12.116;2023-04-03T02:54:50;2.75;;;1.42;;
18507;SDS011;9383;50.928;12.116;2023-04-03T02:57:16;2.40;;;1.30;;
18507;SDS011;9383;50.928;12.116;2023-04-03T02:59:43;1.63;;;1.20;;
18507;SDS011;9383;50.928;12.116;2023-04-03T03:02:09;2.97;;;1.27;;
18507;SDS011;9383;50.928;12.116;2023-04-03T03:04:36;2.33;;;1.38;;
18507;SDS011;9383;50.928;12.116;2023-04-03T03:07:03;3.30;;;1.50;;
18507;SDS011;9383;50.928;12.116;2023-04-03T03:09:30;1.98;;;1.50;;
18507;SDS011;9383;50.928;12.116;2023-04-03T03:11:57;3.85;;;1.77;;
18507;SDS011;9383;50.928;12.116;2023-04-03T03:14:23;1.60;;;1.38;;
18507;SDS011;9383;50.928;12.116;2023-04-03T03:16:50;3.25;;;1.50;;
18507;SDS011;9383;50.928;12.116;2023-04-03T03:19:16;2.15;;;1.50;;
18507;SDS011;9383;50.928;12.116;2023-04-03T03:21:43;2.50;;;1.92;;
18507;SDS011;9383;50.928;12.116;2023-04-03T03:24:10;3.50;;;1.40;;
18507;SDS011;9383;50.928;12.116;2023-04-03T03:26:37;1.67;;;1.50;;
18507;SDS011;9383;50.928;12.116;2023-04-03T03:29:04;4.38;;;1.65;;
18507;SDS011;9383;50.928;12.116;2023-04-03T03:31:30;3.10;;;1.50;;
18507;SDS011;9383;50.928;12.116;2023-04-03T03:33:57;2.00;;;1.35;;
18507;SDS011;9383;50.928;12.116;2023-04-03T03:36:23;2.58;;;1.55;;
18507;SDS011;9383;50.928;12.116;2023-04-03T03:38:50;3.13;;;1.60;;
18507;SDS011;9383;50.928;12.116;2023-04-03T03:41:16;2.67;;;1.65;;
18507;SDS011;9383;50.928;12.116;2023-04-03T03:43:43;2.60;;;1.73;;
18507;SDS011;9383;50.928;12.116;2023-04-03T03:46:09;2.00;;;1.25;;
18507;SDS011;9383;50.928;12.116;2023-04-03T03:48:36;1.77;;;1.45;;
18507;SDS011;9383;50.928;12.116;2023-04-03T03:51:02;2.95;;;1.60;;
18507;SDS011;9383;50.928;12.116;2023-04-03T03:53:29;3.97;;;1.35;;
18507;SDS011;9383;50.928;12.116;2023-04-03T03:55:55;4.18;;;1.67;;
18507;SDS011;9383;50.928;12.116;2023-04-03T03:58:22;2.63;;;1.65;;
18507;SDS011;9383;50.928;12.116;2023-04-03T04:00:48;5.75;;;1.90;;
18507;SDS011;9383;50.928;12.116;2023-04-03T04:03:14;2.92;;;1.70;;
18507;SDS011;9383;50.928;12.116;2023-04-03T04:05:41;3.00;;;1.30;;
18507;SDS011;9383;50.928;12.116;2023-04-03T04:08:08;3.25;;;1.73;;
18507;SDS011;9383;50.928;12.116;2023-04-03T04:10:35;2.17;;;1.30;;
18507;SDS011;9383;50.928;12.116;2023-04-03T04:13:03;3.22;;;1.88;;
18507;SDS011;9383;50.928;12.116;2023-04-03T04:15:30;3.65;;;1.65;;
18507;SDS011;9383;50.928;12.116;2023-04-03T04:17:58;3.72;;;1.90;;
18507;SDS011;9383;50.928;12.116;2023-04-03T04:20:24;3.53;;;1.60;;
18507;SDS011;9383;50.928;12.116;2023-04-03T04:22:51;3.50;;;1.95;;
18507;SDS011;9383;50.928;12.116;2023-04-03T04:25:17;3.25;;;1.67;;
18507;SDS011;9383;50.928;12.116;2023-04-03T04:27:44;4.80;;;1.80;;
18507;SDS011;9383;50.928;12.116;2023-04-03T04:30:10;5.53;;;1.73;;
18507;SDS011;9383;50.928;12.116;2023-04-03T04:32:38;2.58;;;1.40;;
18507;SDS011;9383;50.928;12.116;2023-04-03T04:35:04;3.50;;;1.85;;
18507;SDS011;9383;50.928;12.116;2023-04-03T04:37:32;1.65;;;1.17;;
18507;SDS011;9383;50.928;12.116;2023-04-03T04:39:58;3.60;;;1.75;;
18507;SDS011;9383;50.928;12.116;2023-04-03T04:42:25;2.08;;;1.80;;
18507;SDS011;9383;50.928;12.116;2023-04-03T04:44:52;2.83;;;1.70;;
18507;SDS011;9383;50.928;12.116;2023-04-03T04:47:18;3.05;;;1.58;;
18507;SDS011;9383;50.928;12.116;2023-04-03T04:49:45;4.20;;;2.00;;
18507;SDS011;9383;50.928;12.116;2023-04-03T04:52:12;4.47;;;1.70;;
18507;SDS011;9383;50.928;12.116;2023-04-03T04:54:39;2.53;;;1.67;;
18507;SDS011;9383;50.928;12.116;2023-04-03T04:57:06;2.80;;;1.75;;
18507;SDS011;9383;50.928;12.116;2023-04-03T04:59:32;2.70;;;1.58;;
18507;SDS011;9383;50.928;12.116;2023-04-03T05:01:59;4.95;;;1.77;;
18507;SDS011;9383;50.928;12.116;2023-04-03T05:04:26;3.55;;;1.67;;
18507;SDS011;9383;50.928;12.116;2023-04-03T05:06:52;2.90;;;1.58;;
18507;SDS011;9383;50.928;12.116;2023-04-03T05:09:19;4.68;;;2.00;;
18507;SDS011;9383;50.928;12.116;2023-04-03T05:11:45;3.33;;;1.55;;
18507;SDS011;9383;50.928;12.116;2023-04-03T05:14:12;1.98;;;1.45;;
18507;SDS011;9383;50.928;12.116;2023-04-03T05:16:38;3.97;;;1.80;;
18507;SDS011;9383;50.928;12.116;2023-04-03T05:19:05;2.83;;;2.05;;
18507;SDS011;9383;50.928;12.116;2023-04-03T05:21:32;2.85;;;2.13;;
18507;SDS011;9383;50.928;12.116;2023-04-03T05:23:59;4.93;;;1.83;;
18507;SDS011;9383;50.928;12.116;2023-04-03T05:26:31;3.25;;;1.77;;
18507;SDS011;9383;50.928;12.116;2023-04-03T05:28:57;4.80;;;1.80;;
18507;SDS011;9383;50.928;12.116;2023-04-03T05:31:24;4.47;;;1.88;;
18507;SDS011;9383;50.928;12.116;2023-04-03T05:33:50;5.25;;;1.67;;
18507;SDS011;9383;50.928;12.116;2023-04-03T05:36:17;6.10;;;2.17;;
18507;SDS011;9383;50.928;12.116;2023-04-03T05:38:50;3.65;;;1.65;;
18507;SDS011;9383;50.928;12.116;2023-04-03T05:41:17;3.47;;;1.75;;
18507;SDS011;9383;50.928;12.116;2023-04-03T05:43:43;3.88;;;1.90;;
18507;SDS011;9383;50.928;12.116;2023-04-03T05:46:11;4.45;;;1.80;;
18507;SDS011;9383;50.928;12.116;2023-04-03T05:48:39;2.93;;;1.80;;
18507;SDS011;9383;50.928;12.116;2023-04-03T05:51:05;2.97;;;1.70;;
18507;SDS011;9383;50.928;12.116;2023-04-03T05:53:34;7.00;;;1.52;;
18507;SDS011;9383;50.928;12.116;2023-04-03T05:56:02;6.28;;;1.70;;
18507;SDS011;9383;50.928;12.116;2023-04-03T05:58:29;2.67;;;1.73;;
18507;SDS011;9383;50.928;12.116;2023-04-03T06:00:56;2.88;;;2.03;;
18507;SDS011;9383;50.928;12.116;2023-04-03T06:03:22;1.50;;;1.20;;
18507;SDS011;9383;50.928;12.116;2023-04-03T06:05:50;3.63;;;1.90;;
18507;SDS011;9383;50.928;12.116;2023-04-03T06:08:16;4.38;;;1.88;;
18507;SDS011;9383;50.928;12.116;2023-04-03T06:10:45;3.60;;;1.63;;
18507;SDS011;9383;50.928;12.116;2023-04-03T06:13:11;2.85;;;1.30;;
18507;SDS011;9383;50.928;12.116;2023-04-03T06:15:39;2.90;;;1.70;;
18507;SDS011;9383;50.928;12.116;2023-04-03T06:18:05;4.90;;;1.88;;
18507;SDS011;9383;50.928;12.116;2023-04-03T06:20:32;3.63;;;1.65;;
18507;SDS011;9383;50.928;12.116;2023-04-03T06:22:58;7.18;;;2.03;;
18507;SDS011;9383;50.928;12.116;2023-04-03T06:25:25;2.35;;;1.95;;
18507;SDS011;9383;50.928;12.116;2023-04-03T06:27:54;1.70;;;1.40;;
18507;SDS011;9383;50.928;12.116;2023-04-03T06:30:24;6.00;;;2.03;;
18507;SDS011;9383;50.928;12.116;2023-04-03T06:32:51;4.00;;;1.92;;
18507;SDS011;9383;50.928;12.116;2023-04-03T06:35:18;4.28;;;1.70;;
18507;SDS011;9383;50.928;12.116;2023-04-03T06:37:44;4.63;;;2.03;;
18507;SDS011;9383;50.928;12.116;2023-04-03T06:40:14;3.92;;;1.80;;
18507;SDS011;9383;50.928;12.116;2023-04-03T06:42:45;5.30;;;1.92;;
18507;SDS011;9383;50.928;12.116;2023-04-03T06:45:12;3.15;;;1.50;;
18507;SDS011;9383;50.928;12.116;2023-04-03T06:47:38;4.20;;;1.75;;
18507;SDS011;9383;50.928;12.116;2023-04-03T06:50:05;3.35;;;1.80;;
18507;SDS011;9383;50.928;12.116;2023-04-03T06:52:34;3.65;;;1.67;;
18507;SDS011;9383;50.928;12.116;2023-04-03T06:55:00;3.40;;;1.95;;
18507;SDS011;9383;50.928;12.116;2023-04-03T06:57:27;6.15;;;1.88;;
18507;SDS011;9383;50.928;12.116;2023-04-03T06:59:54;5.13;;;1.77;;
18507;SDS011;9383;50.928;12.116;2023-04-03T07:02:20;3.63;;;1.67;;
18507;SDS011;9383;50.928;12.116;2023-04-03T07:04:47;3.00;;;1.83;;
18507;SDS011;9383;50.928;12.116;2023-04-03T07:07:14;2.47;;;1.52;;
18507;SDS011;9383;50.928;12.116;2023-04-03T07:09:40;4.32;;;1.83;;
18507;SDS011;9383;50.928;12.116;2023-04-03T07:12:08;2.40;;;1.65;;
18507;SDS011;9383;50.928;12.116;2023-04-03T07:14:35;4.00;;;1.60;;
18507;SDS011;9383;50.928;12.116;2023-04-03T07:17:02;3.78;;;1.45;;
18507;SDS011;9383;50.928;12.116;2023-04-03T07:19:30;2.83;;;1.50;;
18507;SDS011;9383;50.928;12.116;2023-04-03T07:21:56;3.95;;;1.88;;
18507;SDS011;9383;50.928;12.116;2023-04-03T07:24:23;2.80;;;1.48;;
18507;SDS011;9383;50.928;12.116;2023-04-03T07:26:50;3.72;;;1.50;;
18507;SDS011;9383;50.928;12.116;2023-04-03T07:29:17;2.28;;;1.50;;
18507;SDS011;9383;50.928;12.116;2023-04-03T07:31:45;3.95;;;1.65;;
18507;SDS011;9383;50.928;12.116;2023-04-03T07:34:13;2.63;;;1.50;;
18507;SDS011;9383;50.928;12.116;2023-04-03T07:36:43;2.88;;;1.80;;
18507;SDS011;9383;50.928;12.116;2023-04-03T07:39:10;2.35;;;1.40;;
18507;SDS011;9383;50.928;12.116;2023-04-03T07:41:37;5.47;;;1.67;;
18507;SDS011;9383;50.928;12.116;2023-04-03T07:44:03;1.70;;;1.23;;
18507;SDS011;9383;50.928;12.116;2023-04-03T07:46:31;3.90;;;1.90;;
18507;SDS011;9383;50.928;12.116;2023-04-03T07:48:57;3.65;;;1.65;;
18507;SDS011;9383;50.928;12.116;2023-04-03T07:51:24;3.25;;;1.35;;
18507;SDS011;9383;50.928;12.116;2023-04-03T07:53:51;2.70;;;1.33;;
18507;SDS011;9383;50.928;12.116;2023-04-03T07:56:18;2.92;;;1.40;;
18507;SDS011;9383;50.928;12.116;2023-04-03T07:58:45;2.53;;;1.27;;
18507;SDS011;9383;50.928;12.116;2023-04-03T08:01:12;1.65;;;1.55;;
18507;SDS011;9383;50.928;12.116;2023-04-03T08:03:38;4.63;;;1.85;;
18507;SDS011;9383;50.928;12.116;2023-04-03T08:06:06;2.58;;;1.52;;
18507;SDS011;9383;50.928;12.116;2023-04-03T08:08:34;4.90;;;1.50;;
18507;SDS011;9383;50.928;12.116;2023-04-03T08:11:01;2.13;;;1.38;;
18507;SDS011;9383;50.928;12.116;2023-04-03T08:13:34;4.57;;;1.75;;
18507;SDS011;9383;50.928;12.116;2023-04-03T08:16:11;3.45;;;1.67;;
18507;SDS011;9383;50.928;12.116;2023-04-03T08:18:41;4.30;;;1.50;;
18507;SDS011;9383;50.928;12.116;2023-04-03T08:21:10;3.08;;;1.73;;
18507;SDS011;9383;50.928;12.116;2023-04-03T08:23:38;4.15;;;1.48;;
18507;SDS011;9383;50.928;12.116;2023-04-03T08:26:13;4.53;;;1.80;;
18507;SDS011;9383;50.928;12.116;2023-04-03T08:28:40;3.55;;;1.35;;
18507;SDS011;9383;50.928;12.116;2023-04-03T08:31:11;3.92;;;1.50;;
18507;SDS011;9383;50.928;12.116;2023-04-03T08:33:44;2.13;;;1.50;;
18507;SDS011;9383;50.928;12.116;2023-04-03T08:36:19;2.08;;;1.10;;
18507;SDS011;9383;50.928;12.116;2023-04-03T08:38:48;4.88;;;2.00;;
18507;SDS011;9383;50.928;12.116;2023-04-03T08:41:19;2.63;;;1.42;;
18507;SDS011;9383;50.928;12.116;2023-04-03T08:46:47;1.60;;;1.38;;
18507;SDS011;9383;50.928;12.116;2023-04-03T08:49:47;2.85;;;1.23;;
18507;SDS011;9383;50.928;12.116;2023-04-03T08:52:20;4.03;;;1.35;;
18507;SDS011;9383;50.928;12.116;2023-04-03T08:54:58;2.10;;;1.05;;
18507;SDS011;9383;50.928;12.116;2023-04-03T08:57:32;1.08;;;1.02;;
18507;SDS011;9383;50.928;12.116;2023-04-03T09:00:09;1.73;;;1.25;;
18507;SDS011;9383;50.928;12.116;2023-04-03T09:02:44;2.20;;;0.75;;
18507;SDS011;9383;50.928;12.116;2023-04-03T09:05:14;1.23;;;0.88;;
18507;SDS011;9383;50.928;12.116;2023-04-03T09:07:53;2.58;;;1.27;;
18507;SDS011;9383;50.928;12.116;2023-04-03T09:10:37;0.77;;;0.68;;
18507;SDS011;9383;50.928;12.116;2023-04-03T09:13:08;1.45;;;1.20;;
18507;SDS011;9383;50.928;12.116;2023-04-03T09:15:59;2.42;;;1.23;;
18507;SDS011;9383;50.928;12.116;2023-04-03T09:18:39;1.48;;;1.02;;
18507;SDS011;9383;50.928;12.116;2023-04-03T09:21:20;1.60;;;0.73;;
18507;SDS011;9383;50.928;12.116;2023-04-03T09:24:00;1.83;;;0.90;;
18507;SDS011;9383;50.928;12.116;2023-04-03T09:26:46;1.63;;;1.05;;
18507;SDS011;9383;50.928;12.116;2023-04-03T09:29:22;3.63;;;1.05;;
18507;SDS011;9383;50.928;12.116;2023-04-03T09:31:50;2.85;;;0.93;;
18507;SDS011;9383;50.928;12.116;2023-04-03T09:34:30;1.83;;;1.10;;
18507;SDS011;9383;50.928;12.116;2023-04-03T09:37:01;0.60;;;0.60;;
18507;SDS011;9383;50.928;12.116;2023-04-03T09:39:32;1.35;;;0.77;;
18507;SDS011;9383;50.928;12.116;2023-04-03T09:42:22;1.33;;;1.00;;
18507;SDS011;9383;50.928;12.116;2023-04-03T09:44:58;0.75;;;0.70;;
18507;SDS011;9383;50.928;12.116;2023-04-03T09:47:26;1.65;;;0.88;;
18507;SDS011;9383;50.928;12.116;2023-04-03T09:52:54;1.13;;;0.98;;
18507;SDS011;9383;50.928;12.116;2023-04-03T09:55:22;1.23;;;0.90;;
18507;SDS011;9383;50.928;12.116;2023-04-03T09:57:58;1.88;;;1.10;;
18507;SDS011;9383;50.928;12.116;2023-04-03T10:00:27;1.83;;;1.13;;
18507;SDS011;9383;50.928;12.116;2023-04-03T10:03:05;3.92;;;0.95;;
18507;SDS011;9383;50.928;12.116;2023-04-03T10:05:50;2.58;;;1.20;;
18507;SDS011;9383;50.928;12.116;2023-04-03T10:08:21;0.98;;;0.88;;
18507;SDS011;9383;50.928;12.116;2023-04-03T10:11:10;1.55;;;1.00;;
18507;SDS011;9383;50.928;12.116;2023-04-03T10:13:49;2.70;;;1.10;;
18507;SDS011;9383;50.928;12.116;2023-04-03T10:16:18;2.53;;;1.15;;
18507;SDS011;9383;50.928;12.116;2023-04-03T10:19:44;0.82;;;0.73;;
18507;SDS011;9383;50.928;12.116;2023-04-03T10:27:55;1.88;;;0.85;;
18507;SDS011;9383;50.928;12.116;2023-04-03T10:30:42;1.55;;;0.82;;
18507;SDS011;9383;50.928;12.116;2023-04-03T10:33:29;1.42;;;0.98;;
18507;SDS011;9383;50.928;12.116;2023-04-03T10:39:26;1.23;;;1.13;;
18507;SDS011;9383;50.928;12.116;2023-04-03T10:42:27;2.35;;;1.40;;
18507;SDS011;9383;50.928;12.116;2023-04-03T10:45:08;1.35;;;1.13;;
18507;SDS011;9383;50.928;12.116;2023-04-03T10:47:46;1.08;;;0.98;;
18507;SDS011;9383;50.928;12.116;2023-04-03T10:50:50;1.83;;;1.23;;
18507;SDS011;9383;50.928;12.116;2023-04-03T10:59:25;1.13;;;0.85;;
18507;SDS011;9383;50.928;12.116;2023-04-03T11:01:57;3.97;;;1.30;;
18507;SDS011;9383;50.928;12.116;2023-04-03T11:04:30;2.47;;;1.13;;
18507;SDS011;9383;50.928;12.116;2023-04-03T11:07:06;1.88;;;1.13;;
18507;SDS011;9383;50.928;12.116;2023-04-03T11:09:54;1.20;;;1.15;;
18507;SDS011;9383;50.928;12.116;2023-04-03T11:12:33;3.33;;;1.05;;
18507;SDS011;9383;50.928;12.116;2023-04-03T11:15:11;2.85;;;1.10;;
18507;SDS011;9383;50.928;12.116;2023-04-03T11:17:48;1.73;;;1.00;;
18507;SDS011;9383;50.928;12.116;2023-04-03T11:20:31;5.07;;;1.17;;
18507;SDS011;9383;50.928;12.116;2023-04-03T11:25:32;1.77;;;0.70;;
18507;SDS011;9383;50.928;12.116;2023-04-03T11:28:04;2.10;;;0.90;;
18507;SDS011;9383;50.928;12.116;2023-04-03T11:30:46;1.90;;;1.10;;
18507;SDS011;9383;50.928;12.116;2023-04-03T11:33:37;1.23;;;0.85;;
18507;SDS011;9383;50.928;12.116;2023-04-03T11:36:08;1.92;;;1.25;;
18507;SDS011;9383;50.928;12.116;2023-04-03T11:39:28;2.40;;;0.90;;
18507;SDS011;9383;50.928;12.116;2023-04-03T11:42:13;2.75;;;1.10;;
18507;SDS011;9383;50.928;12.116;2023-04-03T11:44:40;2.42;;;1.10;;
18507;SDS011;9383;50.928;12.116;2023-04-03T11:47:08;2.22;;;1.35;;
18507;SDS011;9383;50.928;12.116;2023-04-03T12:16:30;1.17;;;0.82;;
18507;SDS011;9383;50.928;12.116;2023-04-03T12:26:44;2.25;;;1.15;;
18507;SDS011;9383;50.928;12.116;2023-04-03T12:32:06;2.00;;;0.90;;
18507;SDS011;9383;50.928;12.116;2023-04-03T12:37:40;1.73;;;0.95;;
18507;SDS011;9383;50.928;12.116;2023-04-03T12:40:36;2.33;;;1.13;;
18507;SDS011;9383;50.928;12.116;2023-04-03T12:46:43;1.58;;;1.00;;
18507;SDS011;9383;50.928;12.116;2023-04-03T12:49:55;1.85;;;1.15;;
18507;SDS011;9383;50.928;12.116;2023-04-03T12:52:06;3.03;;;1.30;;
18507;SDS011;9383;50.928;12.116;2023-04-03T12:54:45;3.53;;;1.10;;
18507;SDS011;9383;50.928;12.116;2023-04-03T12:57:17;2.17;;;1.30;;
18507;SDS011;9383;50.928;12.116;2023-04-03T12:59:46;3.97;;;1.30;;
18507;SDS011;9383;50.928;12.116;2023-04-03T13:02:29;1.10;;;1.00;;
18507;SDS011;9383;50.928;12.116;2023-04-03T13:05:06;2.50;;;1.33;;
18507;SDS011;9383;50.928;12.116;2023-04-03T13:07:37;1.55;;;1.23;;
18507;SDS011;9383;50.928;12.116;2023-04-03T13:12:33;1.98;;;0.90;;
18507;SDS011;9383;50.928;12.116;2023-04-03T13:15:11;1.08;;;0.98;;
18507;SDS011;9383;50.928;12.116;2023-04-03T13:17:42;1.17;;;0.93;;
18507;SDS011;9383;50.928;12.116;2023-04-03T13:20:14;1.60;;;1.13;;
18507;SDS011;9383;50.928;12.116;2023-04-03T13:22:53;1.65;;;1.10;;
18507;SDS011;9383;50.928;12.116;2023-04-03T13:25:31;3.10;;;1.30;;
18507;SDS011;9383;50.928;12.116;2023-04-03T13:28:04;3.55;;;1.30;;
18507;SDS011;9383;50.928;12.116;2023-04-03T13:30:33;1.40;;;1.17;;
18507;SDS011;9383;50.928;12.116;2023-04-03T13:33:03;1.20;;;1.10;;
18507;SDS011;9383;50.928;12.116;2023-04-03T13:35:33;1.67;;;1.30;;
18507;SDS011;9383;50.928;12.116;2023-04-03T13:38:06;2.40;;;1.10;;
18507;SDS011;9383;50.928;12.116;2023-04-03T13:40:55;3.10;;;1.25;;
18507;SDS011;9383;50.928;12.116;2023-04-03T13:43:29;3.08;;;0.93;;
18507;SDS011;9383;50.928;12.116;2023-04-03T13:46:03;2.45;;;0.90;;
18507;SDS011;9383;50.928;12.116;2023-04-03T13:48:51;1.35;;;1.25;;
18507;SDS011;9383;50.928;12.116;2023-04-03T13:51:26;1.30;;;1.05;;
18507;SDS011;9383;50.928;12.116;2023-04-03T13:53:57;2.75;;;1.45;;
18507;SDS011;9383;50.928;12.116;2023-04-03T13:56:38;1.50;;;1.15;;
18507;SDS011;9383;50.928;12.116;2023-04-03T13:59:21;2.70;;;1.35;;
18507;SDS011;9383;50.928;12.116;2023-04-03T14:01:57;2.78;;;1.48;;
18507;SDS011;9383;50.928;12.116;2023-04-03T14:07:23;2.17;;;1.23;;
18507;SDS011;9383;50.928;12.116;2023-04-03T14:09:50;1.63;;;1.33;;
18507;SDS011;9383;50.928;12.116;2023-04-03T14:12:24;1.52;;;1.27;;
18507;SDS011;9383;50.928;12.116;2023-04-03T14:15:25;5.05;;;1.30;;
18507;SDS011;9383;50.928;12.116;2023-04-03T14:17:54;1.92;;;1.40;;
18507;SDS011;9383;50.928;12.116;2023-04-03T14:20:22;1.92;;;1.35;;
18507;SDS011;9383;50.928;12.116;2023-04-03T14:22:52;2.00;;;1.15;;
18507;SDS011;9383;50.928;12.116;2023-04-03T14:25:20;3.40;;;1.10;;
18507;SDS011;9383;50.928;12.116;2023-04-03T14:27:50;2.88;;;1.20;;
18507;SDS011;9383;50.928;12.116;2023-04-03T14:30:21;2.15;;;1.30;;
18507;SDS011;9383;50.928;12.116;2023-04-03T14:32:50;2.25;;;1.33;;
18507;SDS011;9383;50.928;12.116;2023-04-03T14:35:17;3.55;;;1.40;;
18507;SDS011;9383;50.928;12.116;2023-04-03T14:37:45;2.97;;;1.40;;
18507;SDS011;9383;50.928;12.116;2023-04-03T14:40:18;3.05;;;1.40;;
18507;SDS011;9383;50.928;12.116;2023-04-03T14:42:50;1.83;;;1.42;;
18507;SDS011;9383;50.928;12.116;2023-04-03T14:45:21;1.30;;;1.20;;
18507;SDS011;9383;50.928;12.116;2023-04-03T14:47:49;1.35;;;1.20;;
18507;SDS011;9383;50.928;12.116;2023-04-03T14:50:22;1.17;;;1.05;;
18507;SDS011;9383;50.928;12.116;2023-04-03T14:52:52;1.27;;;0.95;;
18507;SDS011;9383;50.928;12.116;2023-04-03T14:55:21;1.40;;;1.30;;
18507;SDS011;9383;50.928;12.116;2023-04-03T14:57:49;1.58;;;1.30;;
18507;SDS011;9383;50.928;12.116;2023-04-03T15:00:17;2.22;;;1.30;;
18507;SDS011;9383;50.928;12.116;2023-04-03T15:02:45;3.15;;;1.33;;
18507;SDS011;9383;50.928;12.116;2023-04-03T15:05:13;1.50;;;1.10;;
18507;SDS011;9383;50.928;12.116;2023-04-03T15:07:41;1.27;;;1.17;;
18507;SDS011;9383;50.928;12.116;2023-04-03T15:10:16;1.42;;;1.05;;
18507;SDS011;9383;50.928;12.116;2023-04-03T15:12:47;1.73;;;1.60;;
18507;SDS011;9383;50.928;12.116;2023-04-03T15:15:15;2.10;;;1.17;;
18507;SDS011;9383;50.928;12.116;2023-04-03T15:17:43;1.98;;;1.30;;
18507;SDS011;9383;50.928;12.116;2023-04-03T15:20:15;2.80;;;1.60;;
18507;SDS011;9383;50.928;12.116;2023-04-03T15:22:44;1.23;;;1.13;;
18507;SDS011;9383;50.928;12.116;2023-04-03T15:25:11;1.95;;;1.35;;
18507;SDS011;9383;50.928;12.116;2023-04-03T15:27:38;2.03;;;1.60;;
18507;SDS011;9383;50.928;12.116;2023-04-03T15:30:06;3.38;;;1.50;;
18507;SDS011;9383;50.928;12.116;2023-04-03T15:32:38;1.85;;;1.27;;
18507;SDS011;9383;50.928;12.116;2023-04-03T15:35:04;1.95;;;1.25;;
18507;SDS011;9383;50.928;12.116;2023-04-03T15:37:31;2.67;;;1.30;;
18507;SDS011;9383;50.928;12.116;2023-04-03T15:39:58;1.83;;;1.38;;
18507;SDS011;9383;50.928;12.116;2023-04-03T15:42:25;1.80;;;1.70;;
18507;SDS011;9383;50.928;12.116;2023-04-03T15:44:52;1.67;;;1.38;;
18507;SDS011;9383;50.928;12.116;2023-04-03T15:47:19;2.42;;;1.20;;
18507;SDS011;9383;50.928;12.116;2023-04-03T15:49:46;1.42;;;1.25;;
18507;SDS011;9383;50.928;12.116;2023-04-03T15:52:13;1.85;;;1.38;;
18507;SDS011;9383;50.928;12.116;2023-04-03T15:54:39;2.13;;;1.60;;
18507;SDS011;9383;50.928;12.116;2023-04-03T15:57:06;2.55;;;1.10;;
18507;SDS011;9383;50.928;12.116;2023-04-03T15:59:33;3.00;;;1.10;;
18507;SDS011;9383;50.928;12.116;2023-04-03T16:01:59;2.47;;;1.40;;
18507;SDS011;9383;50.928;12.116;2023-04-03T16:04:29;2.35;;;1.60;;
18507;SDS011;9383;50.928;12.116;2023-04-03T16:06:56;2.60;;;1.33;;
18507;SDS011;9383;50.928;12.116;2023-04-03T16:09:26;2.97;;;1.33;;
18507;SDS011;9383;50.928;12.116;2023-04-03T16:11:52;2.28;;;1.25;;
18507;SDS011;9383;50.928;12.116;2023-04-03T16:14:19;1.83;;;1.23;;
18507;SDS011;9383;50.928;12.116;2023-04-03T16:16:46;1.30;;;1.13;;
18507;SDS011;9383;50.928;12.116;2023-04-03T16:19:13;1.50;;;1.30;;
18507;SDS011;9383;50.928;12.116;2023-04-03T16:21:39;1.83;;;1.30;;
18507;SDS011;9383;50.928;12.116;2023-04-03T16:24:06;1.40;;;1.25;;
18507;SDS011;9383;50.928;12.116;2023-04-03T16:26:33;1.38;;;1.20;;
18507;SDS011;9383;50.928;12.116;2023-04-03T16:29:01;1.42;;;1.10;;